sensor_id;sensor_type;location;lat;lon;timestamp;temperature;humidity
17632;DHT22;8934;51.194;17.150;2024-03-29T03:40:00;7.50;99.90
17632;DHT22;8934;51.194;17.150;2024-03-29T03:42:46;5.80;99.90
17632;DHT22;8934;51.194;17.150;2024-03-29T03:45:34;5.70;99.90
17632;DHT22;8934;51.194;17.150;2024-03-29T03:48:20;5.70;99.90
17632;DHT22;8934;51.194;17.150;2024-03-29T03:51:06;5.70;99.90
17632;DHT22;8934;51.194;17.150;2024-03-29T03:53:54;5.60;99.90
17632;DHT22;8934;51.194;17.150;2024-03-29T03:56:39;5.60;99.90
17632;DHT22;8934;51.194;17.150;2024-03-29T03:59:26;5.60;99.90
17632;DHT22;8934;51.194;17.150;2024-03-29T04:02:11;5.50;99.90
17632;DHT22;8934;51.194;17.150;2024-03-29T04:04:58;5.50;99.90
17632;DHT22;8934;51.194;17.150;2024-03-29T04:07:44;5.30;99.90
17632;DHT22;8934;51.194;17.150;2024-03-29T04:10:31;5.30;99.90
17632;DHT22;8934;51.194;17.150;2024-03-29T04:13:18;5.20;99.90
17632;DHT22;8934;51.194;17.150;2024-03-29T04:16:04;5.10;99.90
17632;DHT22;8934;51.194;17.150;2024-03-29T04:18:51;5.10;99.90
17632;DHT22;8934;51.194;17.150;2024-03-29T04:21:36;5.10;99.90
17632;DHT22;8934;51.194;17.150;2024-03-29T04:24:23;5.00;99.90
17632;DHT22;8934;51.194;17.150;2024-03-29T04:27:11;4.90;99.90
17632;DHT22;8934;51.194;17.150;2024-03-29T04:29:56;4.90;99.90
17632;DHT22;8934;51.194;17.150;2024-03-29T04:32:43;4.80;99.90
17632;DHT22;8934;51.194;17.150;2024-03-29T04:35:28;4.70;99.90
17632;DHT22;8934;51.194;17.150;2024-03-29T04:38:14;4.60;99.90
17632;DHT22;8934;51.194;17.150;2024-03-29T04:41:00;4.40;99.90
17632;DHT22;8934;51.194;17.150;2024-03-29T04:43:50;4.30;99.90
17632;DHT22;8934;51.194;17.150;2024-03-29T04:46:36;4.20;99.90
17632;DHT22;8934;51.194;17.150;2024-03-29T04:49:23;4.20;99.90
17632;DHT22;8934;51.194;17.150;2024-03-29T04:52:15;4.10;99.90
17632;DHT22;8934;51.194;17.150;2024-03-29T04:55:02;4.00;99.90
17632;DHT22;8934;51.194;17.150;2024-03-29T04:57:48;3.90;99.90
17632;DHT22;8934;51.194;17.150;2024-03-29T05:00:35;3.90;99.90
17632;DHT22;8934;51.194;17.150;2024-03-29T05:03:22;3.90;99.90
17632;DHT22;8934;51.194;17.150;2024-03-29T05:06:09;3.80;99.90
17632;DHT22;8934;51.194;17.150;2024-03-29T05:08:55;3.80;99.90
17632;DHT22;8934;51.194;17.150;2024-03-29T05:11:41;3.80;99.90
17632;DHT22;8934;51.194;17.150;2024-03-29T05:14:28;3.80;99.90
17632;DHT22;8934;51.194;17.150;2024-03-29T05:17:16;3.90;99.90
17632;DHT22;8934;51.194;17.150;2024-03-29T05:20:02;4.10;99.90
17632;DHT22;8934;51.194;17.150;2024-03-29T05:22:49;4.30;99.90
17632;DHT22;8934;51.194;17.150;2024-03-29T05:25:36;4.40;99.90
17632;DHT22;8934;51.194;17.150;2024-03-29T05:28:22;4.60;99.90
17632;DHT22;8934;51.194;17.150;2024-03-29T05:31:11;4.70;99.90
17632;DHT22;8934;51.194;17.150;2024-03-29T05:34:00;4.90;99.90
17632;DHT22;8934;51.194;17.150;2024-03-29T05:36:47;5.00;99.90
17632;DHT22;8934;51.194;17.150;2024-03-29T05:39:33;5.10;99.90
17632;DHT22;8934;51.194;17.150;2024-03-29T05:42:19;5.30;99.90
17632;DHT22;8934;51.194;17.150;2024-03-29T05:45:23;5.50;99.90
17632;DHT22;8934;51.194;17.150;2024-03-29T05:48:09;5.70;99.90
17632;DHT22;8934;51.194;17.150;2024-03-29T05:50:57;5.80;99.90
17632;DHT22;8934;51.194;17.150;2024-03-29T05:53:43;6.00;99.90
17632;DHT22;8934;51.194;17.150;2024-03-29T05:56:29;6.10;99.90
17632;DHT22;8934;51.194;17.150;2024-03-29T05:59:16;6.30;99.90
17632;DHT22;8934;51.194;17.150;2024-03-29T06:02:03;6.50;99.90
17632;DHT22;8934;51.194;17.150;2024-03-29T06:04:49;6.70;99.90
17632;DHT22;8934;51.194;17.150;2024-03-29T06:07:37;7.00;99.90
17632;DHT22;8934;51.194;17.150;2024-03-29T06:10:23;7.20;99.90
17632;DHT22;8934;51.194;17.150;2024-03-29T06:13:10;7.40;99.90
17632;DHT22;8934;51.194;17.150;2024-03-29T06:16:12;7.70;99.90
17632;DHT22;8934;51.194;17.150;2024-03-29T06:19:16;7.90;99.90
17632;DHT22;8934;51.194;17.150;2024-03-29T06:22:03;8.20;99.90
17632;DHT22;8934;51.194;17.150;2024-03-29T06:24:51;8.50;99.90
17632;DHT22;8934;51.194;17.150;2024-03-29T06:27:38;8.70;99.90
17632;DHT22;8934;51.194;17.150;2024-03-29T06:30:25;8.90;99.90
17632;DHT22;8934;51.194;17.150;2024-03-29T06:33:11;9.10;99.90
17632;DHT22;8934;51.194;17.150;2024-03-29T06:35:57;9.40;99.90
17632;DHT22;8934;51.194;17.150;2024-03-29T06:38:43;9.60;99.90
17632;DHT22;8934;51.194;17.150;2024-03-29T06:41:31;9.80;99.90
17632;DHT22;8934;51.194;17.150;2024-03-29T06:44:18;10.10;99.90
17632;DHT22;8934;51.194;17.150;2024-03-29T06:47:04;10.30;99.90
17632;DHT22;8934;51.194;17.150;2024-03-29T06:49:51;10.40;99.90
17632;DHT22;8934;51.194;17.150;2024-03-29T06:52:37;10.50;99.90
17632;DHT22;8934;51.194;17.150;2024-03-29T06:55:25;10.80;99.90
17632;DHT22;8934;51.194;17.150;2024-03-29T06:58:13;10.90;99.90
17632;DHT22;8934;51.194;17.150;2024-03-29T07:00:59;11.10;99.90
17632;DHT22;8934;51.194;17.150;2024-03-29T07:03:45;11.40;99.90
17632;DHT22;8934;51.194;17.150;2024-03-29T09:06:17;11.50;99.90
17632;DHT22;8934;51.194;17.150;2024-03-29T09:09:03;16.30;99.90
17632;DHT22;8934;51.194;17.150;2024-03-29T09:11:51;16.30;99.90
17632;DHT22;8934;51.194;17.150;2024-03-29T09:14:37;16.50;99.90
17632;DHT22;8934;51.194;17.150;2024-03-29T09:17:24;16.60;99.90
17632;DHT22;8934;51.194;17.150;2024-03-29T09:20:11;16.80;99.90
17632;DHT22;8934;51.194;17.150;2024-03-29T09:22:57;17.10;99.90
17632;DHT22;8934;51.194;17.150;2024-03-29T09:25:43;17.20;99.90
17632;DHT22;8934;51.194;17.150;2024-03-29T09:28:31;17.20;99.90
17632;DHT22;8934;51.194;17.150;2024-03-29T09:31:19;17.30;99.90
17632;DHT22;8934;51.194;17.150;2024-03-29T09:34:05;17.50;99.90
17632;DHT22;8934;51.194;17.150;2024-03-29T09:36:52;17.50;99.90
17632;DHT22;8934;51.194;17.150;2024-03-29T09:39:39;17.60;99.20
17632;DHT22;8934;51.194;17.150;2024-03-29T09:42:25;17.70;98.70
17632;DHT22;8934;51.194;17.150;2024-03-29T09:45:18;17.90;98.40
17632;DHT22;8934;51.194;17.150;2024-03-29T09:48:07;18.10;98.40
17632;DHT22;8934;51.194;17.150;2024-03-29T09:50:54;18.40;97.40
17632;DHT22;8934;51.194;17.150;2024-03-29T09:53:42;18.50;95.30
17632;DHT22;8934;51.194;17.150;2024-03-29T09:56:29;18.60;94.50
17632;DHT22;8934;51.194;17.150;2024-03-29T09:59:16;18.70;93.80
17632;DHT22;8934;51.194;17.150;2024-03-29T10:02:11;18.80;93.90
17632;DHT22;8934;51.194;17.150;2024-03-29T10:05:01;18.90;93.00
17632;DHT22;8934;51.194;17.150;2024-03-29T10:07:51;18.90;91.90
17632;DHT22;8934;51.194;17.150;2024-03-29T10:10:39;18.90;91.80
17632;DHT22;8934;51.194;17.150;2024-03-29T10:13:26;19.00;92.50
17632;DHT22;8934;51.194;17.150;2024-03-29T10:16:12;19.10;90.20
17632;DHT22;8934;51.194;17.150;2024-03-29T10:19:05;19.30;90.00
17632;DHT22;8934;51.194;17.150;2024-03-29T10:21:51;19.50;91.00
17632;DHT22;8934;51.194;17.150;2024-03-29T10:24:38;19.80;90.50
17632;DHT22;8934;51.194;17.150;2024-03-29T10:27:25;20.00;85.60
17632;DHT22;8934;51.194;17.150;2024-03-29T10:30:12;19.80;81.50
17632;DHT22;8934;51.194;17.150;2024-03-29T10:33:02;19.60;85.00
17632;DHT22;8934;51.194;17.150;2024-03-29T10:35:50;19.40;85.60
17632;DHT22;8934;51.194;17.150;2024-03-29T10:38:37;19.50;86.90
17632;DHT22;8934;51.194;17.150;2024-03-29T10:41:24;19.50;86.70
17632;DHT22;8934;51.194;17.150;2024-03-29T10:44:11;19.70;84.50
17632;DHT22;8934;51.194;17.150;2024-03-29T10:46:59;19.70;86.10
17632;DHT22;8934;51.194;17.150;2024-03-29T10:49:50;19.60;86.90
17632;DHT22;8934;51.194;17.150;2024-03-29T10:52:38;19.70;87.00
17632;DHT22;8934;51.194;17.150;2024-03-29T10:55:27;19.80;85.80
17632;DHT22;8934;51.194;17.150;2024-03-29T10:58:15;20.00;84.20
17632;DHT22;8934;51.194;17.150;2024-03-29T11:01:05;20.20;83.50
17632;DHT22;8934;51.194;17.150;2024-03-29T11:03:54;20.30;84.80
17632;DHT22;8934;51.194;17.150;2024-03-29T11:06:47;20.40;84.40
17632;DHT22;8934;51.194;17.150;2024-03-29T11:09:38;20.70;83.40
17632;DHT22;8934;51.194;17.150;2024-03-29T11:12:27;20.90;81.20
17632;DHT22;8934;51.194;17.150;2024-03-29T11:15:22;20.80;80.70
17632;DHT22;8934;51.194;17.150;2024-03-29T11:18:10;20.90;80.50
17632;DHT22;8934;51.194;17.150;2024-03-29T11:20:58;20.90;80.90
17632;DHT22;8934;51.194;17.150;2024-03-29T11:23:48;21.00;80.30
17632;DHT22;8934;51.194;17.150;2024-03-29T11:26:39;21.00;79.00
17632;DHT22;8934;51.194;17.150;2024-03-29T11:29:26;21.00;78.60
17632;DHT22;8934;51.194;17.150;2024-03-29T11:32:34;21.00;77.00
17632;DHT22;8934;51.194;17.150;2024-03-29T11:35:21;20.90;77.00
17632;DHT22;8934;51.194;17.150;2024-03-29T11:38:09;20.80;75.40
17632;DHT22;8934;51.194;17.150;2024-03-29T11:41:00;20.90;76.50
17632;DHT22;8934;51.194;17.150;2024-03-29T11:43:47;20.80;76.90
17632;DHT22;8934;51.194;17.150;2024-03-29T11:46:34;20.90;77.10
17632;DHT22;8934;51.194;17.150;2024-03-29T11:49:21;21.20;75.10
17632;DHT22;8934;51.194;17.150;2024-03-29T11:52:07;21.30;75.80
17632;DHT22;8934;51.194;17.150;2024-03-29T11:54:54;21.50;73.40
17632;DHT22;8934;51.194;17.150;2024-03-29T11:57:40;21.60;75.50
17632;DHT22;8934;51.194;17.150;2024-03-29T12:00:28;21.40;75.00
17632;DHT22;8934;51.194;17.150;2024-03-29T12:03:16;21.40;75.00
17632;DHT22;8934;51.194;17.150;2024-03-29T12:06:02;21.50;74.00
17632;DHT22;8934;51.194;17.150;2024-03-29T12:08:50;21.50;75.60
17632;DHT22;8934;51.194;17.150;2024-03-29T12:11:38;21.00;75.80
17632;DHT22;8934;51.194;17.150;2024-03-29T12:14:24;20.70;77.20
17632;DHT22;8934;51.194;17.150;2024-03-29T12:17:13;20.80;77.50
17632;DHT22;8934;51.194;17.150;2024-03-29T12:20:00;21.10;78.00
17632;DHT22;8934;51.194;17.150;2024-03-29T12:22:50;21.50;78.80
17632;DHT22;8934;51.194;17.150;2024-03-29T12:25:37;22.00;76.70
17632;DHT22;8934;51.194;17.150;2024-03-29T12:28:25;22.40;78.00
17632;DHT22;8934;51.194;17.150;2024-03-29T12:31:12;22.70;73.80
17632;DHT22;8934;51.194;17.150;2024-03-29T12:34:00;22.80;75.70
17632;DHT22;8934;51.194;17.150;2024-03-29T12:36:47;23.00;74.20
17632;DHT22;8934;51.194;17.150;2024-03-29T12:39:33;23.30;72.90
17632;DHT22;8934;51.194;17.150;2024-03-29T12:42:20;23.10;73.90
17632;DHT22;8934;51.194;17.150;2024-03-29T12:45:08;23.00;73.60
17632;DHT22;8934;51.194;17.150;2024-03-29T12:47:55;22.60;74.30
17632;DHT22;8934;51.194;17.150;2024-03-29T12:50:44;22.40;72.50
17632;DHT22;8934;51.194;17.150;2024-03-29T12:53:31;22.20;74.40
17632;DHT22;8934;51.194;17.150;2024-03-29T12:56:18;22.10;73.40
17632;DHT22;8934;51.194;17.150;2024-03-29T12:59:05;22.20;75.10
17632;DHT22;8934;51.194;17.150;2024-03-29T13:01:51;22.30;76.60
17632;DHT22;8934;51.194;17.150;2024-03-29T13:04:38;22.30;75.50
17632;DHT22;8934;51.194;17.150;2024-03-29T13:07:30;22.20;75.70
17632;DHT22;8934;51.194;17.150;2024-03-29T13:10:17;22.10;74.00
17632;DHT22;8934;51.194;17.150;2024-03-29T13:13:06;22.10;75.30
17632;DHT22;8934;51.194;17.150;2024-03-29T13:15:52;22.20;78.00
17632;DHT22;8934;51.194;17.150;2024-03-29T13:18:39;22.10;74.30
17632;DHT22;8934;51.194;17.150;2024-03-29T13:21:26;21.90;76.20
17632;DHT22;8934;51.194;17.150;2024-03-29T13:24:13;21.90;77.00
17632;DHT22;8934;51.194;17.150;2024-03-29T13:27:00;21.90;78.20
17632;DHT22;8934;51.194;17.150;2024-03-29T13:29:46;22.00;78.00
17632;DHT22;8934;51.194;17.150;2024-03-29T13:32:34;22.10;77.20
17632;DHT22;8934;51.194;17.150;2024-03-29T13:35:21;22.20;77.50
17632;DHT22;8934;51.194;17.150;2024-03-29T13:38:07;22.30;76.10
17632;DHT22;8934;51.194;17.150;2024-03-29T13:40:54;22.40;76.20
17632;DHT22;8934;51.194;17.150;2024-03-29T13:43:41;22.40;75.50
17632;DHT22;8934;51.194;17.150;2024-03-29T13:46:28;22.40;76.40
17632;DHT22;8934;51.194;17.150;2024-03-29T13:49:14;22.40;76.00
17632;DHT22;8934;51.194;17.150;2024-03-29T13:52:05;22.30;75.90
17632;DHT22;8934;51.194;17.150;2024-03-29T13:54:52;22.00;76.40
17632;DHT22;8934;51.194;17.150;2024-03-29T13:57:40;21.60;77.30
17632;DHT22;8934;51.194;17.150;2024-03-29T14:00:28;21.40;78.40
17632;DHT22;8934;51.194;17.150;2024-03-29T14:03:15;21.40;79.90
17632;DHT22;8934;51.194;17.150;2024-03-29T14:06:01;21.60;81.10
17632;DHT22;8934;51.194;17.150;2024-03-29T14:08:49;21.90;78.60
17632;DHT22;8934;51.194;17.150;2024-03-29T14:11:36;21.90;79.60
17632;DHT22;8934;51.194;17.150;2024-03-29T14:14:23;21.90;77.70
17632;DHT22;8934;51.194;17.150;2024-03-29T14:17:10;21.90;77.80
17632;DHT22;8934;51.194;17.150;2024-03-29T14:19:56;21.90;78.30
17632;DHT22;8934;51.194;17.150;2024-03-29T14:22:44;22.00;78.60
17632;DHT22;8934;51.194;17.150;2024-03-29T14:25:31;22.20;79.40
17632;DHT22;8934;51.194;17.150;2024-03-29T14:28:17;22.50;77.40
17632;DHT22;8934;51.194;17.150;2024-03-29T14:31:05;22.70;77.80
17632;DHT22;8934;51.194;17.150;2024-03-29T14:33:53;22.70;77.60
17632;DHT22;8934;51.194;17.150;2024-03-29T14:36:39;22.80;76.50
17632;DHT22;8934;51.194;17.150;2024-03-29T14:39:26;22.60;77.40
17632;DHT22;8934;51.194;17.150;2024-03-29T14:42:12;22.60;77.30
17632;DHT22;8934;51.194;17.150;2024-03-29T15:12:56;22.80;78.10
17632;DHT22;8934;51.194;17.150;2024-03-29T15:15:42;25.70;69.60
17632;DHT22;8934;51.194;17.150;2024-03-29T15:18:38;25.40;70.40
17632;DHT22;8934;51.194;17.150;2024-03-29T15:21:25;25.00;70.00
17632;DHT22;8934;51.194;17.150;2024-03-29T15:24:13;24.20;71.10
17632;DHT22;8934;51.194;17.150;2024-03-29T15:26:59;23.60;72.60
17632;DHT22;8934;51.194;17.150;2024-03-29T15:29:47;22.80;73.40
17632;DHT22;8934;51.194;17.150;2024-03-29T15:32:33;22.10;75.30
17632;DHT22;8934;51.194;17.150;2024-03-29T15:35:20;21.40;77.70
17632;DHT22;8934;51.194;17.150;2024-03-29T15:38:08;20.80;78.00
17632;DHT22;8934;51.194;17.150;2024-03-29T15:40:57;20.50;79.60
17632;DHT22;8934;51.194;17.150;2024-03-29T15:43:43;20.10;81.00
17632;DHT22;8934;51.194;17.150;2024-03-29T15:46:30;19.90;82.50
17632;DHT22;8934;51.194;17.150;2024-03-29T15:49:17;19.70;83.80
17632;DHT22;8934;51.194;17.150;2024-03-29T15:52:04;19.50;84.60
17632;DHT22;8934;51.194;17.150;2024-03-29T15:54:53;19.40;84.80
17632;DHT22;8934;51.194;17.150;2024-03-29T15:57:40;19.20;84.80
17632;DHT22;8934;51.194;17.150;2024-03-29T16:00:27;19.10;86.50
17632;DHT22;8934;51.194;17.150;2024-03-29T16:03:15;19.10;87.20
17632;DHT22;8934;51.194;17.150;2024-03-29T16:06:02;19.20;87.50
17632;DHT22;8934;51.194;17.150;2024-03-29T16:08:48;19.20;88.10
17632;DHT22;8934;51.194;17.150;2024-03-29T16:11:37;19.10;88.80
17632;DHT22;8934;51.194;17.150;2024-03-29T16:14:23;19.00;89.30
17632;DHT22;8934;51.194;17.150;2024-03-29T16:17:13;19.00;89.30
17632;DHT22;8934;51.194;17.150;2024-03-29T16:19:59;19.00;89.60
17632;DHT22;8934;51.194;17.150;2024-03-29T16:22:44;18.90;90.30
17632;DHT22;8934;51.194;17.150;2024-03-29T16:25:31;18.80;90.50
17632;DHT22;8934;51.194;17.150;2024-03-29T16:28:19;18.70;90.80
17632;DHT22;8934;51.194;17.150;2024-03-29T16:31:07;18.50;91.60
17632;DHT22;8934;51.194;17.150;2024-03-29T16:33:52;18.20;91.90
17632;DHT22;8934;51.194;17.150;2024-03-29T16:36:39;17.90;92.50
17632;DHT22;8934;51.194;17.150;2024-03-29T16:39:24;17.70;93.00
17632;DHT22;8934;51.194;17.150;2024-03-29T16:42:10;17.50;93.30
17632;DHT22;8934;51.194;17.150;2024-03-29T16:44:57;17.40;93.70
17632;DHT22;8934;51.194;17.150;2024-03-29T16:47:44;17.20;94.40
17632;DHT22;8934;51.194;17.150;2024-03-29T16:50:29;17.00;94.60
17632;DHT22;8934;51.194;17.150;2024-03-29T16:53:16;16.90;94.90
17632;DHT22;8934;51.194;17.150;2024-03-29T16:56:01;16.80;95.20
17632;DHT22;8934;51.194;17.150;2024-03-29T16:58:48;16.70;96.00
17632;DHT22;8934;51.194;17.150;2024-03-29T17:01:34;16.60;96.70
17632;DHT22;8934;51.194;17.150;2024-03-29T17:04:21;16.40;97.30
17632;DHT22;8934;51.194;17.150;2024-03-29T17:07:06;16.30;98.00
17632;DHT22;8934;51.194;17.150;2024-03-29T17:09:53;16.20;98.40
17632;DHT22;8934;51.194;17.150;2024-03-29T17:12:38;16.10;98.70
17632;DHT22;8934;51.194;17.150;2024-03-29T17:15:25;16.00;99.50
17632;DHT22;8934;51.194;17.150;2024-03-29T17:18:13;16.00;99.90
17632;DHT22;8934;51.194;17.150;2024-03-29T17:20:58;15.80;99.90
17632;DHT22;8934;51.194;17.150;2024-03-29T17:23:44;15.70;99.90
17632;DHT22;8934;51.194;17.150;2024-03-29T17:26:30;15.60;99.90
17632;DHT22;8934;51.194;17.150;2024-03-29T17:29:17;15.50;99.90
17632;DHT22;8934;51.194;17.150;2024-03-29T17:32:03;15.40;99.90
17632;DHT22;8934;51.194;17.150;2024-03-29T17:34:51;15.20;99.90
17632;DHT22;8934;51.194;17.150;2024-03-29T17:37:36;15.10;99.90
17632;DHT22;8934;51.194;17.150;2024-03-29T17:40:28;15.10;99.90
17632;DHT22;8934;51.194;17.150;2024-03-29T17:43:13;15.00;99.90
17632;DHT22;8934;51.194;17.150;2024-03-29T17:46:00;14.90;99.90
17632;DHT22;8934;51.194;17.150;2024-03-29T17:48:45;14.90;99.90
17632;DHT22;8934;51.194;17.150;2024-03-29T17:51:33;14.90;99.90
17632;DHT22;8934;51.194;17.150;2024-03-29T17:54:18;14.90;99.90
17632;DHT22;8934;51.194;17.150;2024-03-29T17:57:04;15.00;99.90
17632;DHT22;8934;51.194;17.150;2024-03-29T17:59:50;15.00;99.90
17632;DHT22;8934;51.194;17.150;2024-03-29T18:02:37;15.00;99.90
17632;DHT22;8934;51.194;17.150;2024-03-29T18:05:22;15.00;99.90
17632;DHT22;8934;51.194;17.150;2024-03-29T18:08:11;14.90;99.90
17632;DHT22;8934;51.194;17.150;2024-03-29T18:10:56;14.90;99.90
17632;DHT22;8934;51.194;17.150;2024-03-29T18:13:43;14.80;99.90
17632;DHT22;8934;51.194;17.150;2024-03-29T18:16:28;14.70;99.90
17632;DHT22;8934;51.194;17.150;2024-03-29T18:19:14;14.70;99.90
17632;DHT22;8934;51.194;17.150;2024-03-29T18:22:00;14.60;99.90
17632;DHT22;8934;51.194;17.150;2024-03-29T18:24:48;14.50;99.90
17632;DHT22;8934;51.194;17.150;2024-03-29T18:27:33;14.30;99.90
17632;DHT22;8934;51.194;17.150;2024-03-29T18:30:20;14.30;99.90
17632;DHT22;8934;51.194;17.150;2024-03-29T18:33:07;14.10;99.90
17632;DHT22;8934;51.194;17.150;2024-03-29T18:35:54;14.00;99.90
17632;DHT22;8934;51.194;17.150;2024-03-29T18:38:42;13.90;99.90
17632;DHT22;8934;51.194;17.150;2024-03-29T18:41:30;13.80;99.90
17632;DHT22;8934;51.194;17.150;2024-03-29T18:44:19;13.80;99.90
17632;DHT22;8934;51.194;17.150;2024-03-29T18:47:05;13.70;99.90
17632;DHT22;8934;51.194;17.150;2024-03-29T18:49:51;13.60;99.90
17632;DHT22;8934;51.194;17.150;2024-03-29T18:52:36;13.50;99.90
17632;DHT22;8934;51.194;17.150;2024-03-29T18:55:23;13.50;99.90
17632;DHT22;8934;51.194;17.150;2024-03-29T18:58:10;13.40;99.90
17632;DHT22;8934;51.194;17.150;2024-03-29T19:00:56;13.40;99.90
17632;DHT22;8934;51.194;17.150;2024-03-29T19:03:42;13.30;99.90
17632;DHT22;8934;51.194;17.150;2024-03-29T19:06:28;13.30;99.90
17632;DHT22;8934;51.194;17.150;2024-03-29T19:09:16;13.30;99.90
17632;DHT22;8934;51.194;17.150;2024-03-29T19:12:03;13.30;99.90
17632;DHT22;8934;51.194;17.150;2024-03-29T19:14:50;13.20;99.90
17632;DHT22;8934;51.194;17.150;2024-03-29T19:17:36;13.20;99.90
17632;DHT22;8934;51.194;17.150;2024-03-29T19:20:22;13.10;99.90
17632;DHT22;8934;51.194;17.150;2024-03-29T19:23:09;13.00;99.90
17632;DHT22;8934;51.194;17.150;2024-03-29T19:25:54;12.90;99.90
17632;DHT22;8934;51.194;17.150;2024-03-29T19:28:40;12.70;99.90
17632;DHT22;8934;51.194;17.150;2024-03-29T19:31:27;12.50;99.90
17632;DHT22;8934;51.194;17.150;2024-03-29T19:34:13;12.40;99.90
17632;DHT22;8934;51.194;17.150;2024-03-29T19:36:59;12.30;99.90
17632;DHT22;8934;51.194;17.150;2024-03-29T19:39:45;12.10;99.90
17632;DHT22;8934;51.194;17.150;2024-03-29T19:42:31;12.00;99.90
17632;DHT22;8934;51.194;17.150;2024-03-29T19:45:17;11.80;99.90
17632;DHT22;8934;51.194;17.150;2024-03-29T19:48:04;11.70;99.90
17632;DHT22;8934;51.194;17.150;2024-03-29T19:50:51;11.60;99.90
17632;DHT22;8934;51.194;17.150;2024-03-29T19:53:36;11.50;99.90
17632;DHT22;8934;51.194;17.150;2024-03-29T19:56:22;11.40;99.90
17632;DHT22;8934;51.194;17.150;2024-03-29T19:59:08;11.30;99.90
17632;DHT22;8934;51.194;17.150;2024-03-29T20:01:54;11.20;99.90
17632;DHT22;8934;51.194;17.150;2024-03-29T20:04:41;11.10;99.90
17632;DHT22;8934;51.194;17.150;2024-03-29T20:07:27;11.00;99.90
17632;DHT22;8934;51.194;17.150;2024-03-29T20:10:13;11.00;99.90
17632;DHT22;8934;51.194;17.150;2024-03-29T20:12:59;10.90;99.90
17632;DHT22;8934;51.194;17.150;2024-03-29T20:15:46;10.90;99.90
17632;DHT22;8934;51.194;17.150;2024-03-29T20:18:32;10.80;99.90
17632;DHT22;8934;51.194;17.150;2024-03-29T20:21:19;10.80;99.90
17632;DHT22;8934;51.194;17.150;2024-03-29T20:24:05;10.80;99.90
17632;DHT22;8934;51.194;17.150;2024-03-29T20:26:51;10.90;99.90
17632;DHT22;8934;51.194;17.150;2024-03-29T20:29:38;10.90;99.90
17632;DHT22;8934;51.194;17.150;2024-03-29T20:32:24;10.90;99.90
17632;DHT22;8934;51.194;17.150;2024-03-29T20:35:10;11.00;99.90
17632;DHT22;8934;51.194;17.150;2024-03-29T20:37:57;11.00;99.90
17632;DHT22;8934;51.194;17.150;2024-03-29T20:40:43;11.00;99.90
17632;DHT22;8934;51.194;17.150;2024-03-29T20:43:29;11.00;99.90
17632;DHT22;8934;51.194;17.150;2024-03-29T20:46:17;11.00;99.90
17632;DHT22;8934;51.194;17.150;2024-03-29T20:49:02;11.00;99.90
17632;DHT22;8934;51.194;17.150;2024-03-29T20:51:50;11.10;99.90
17632;DHT22;8934;51.194;17.150;2024-03-29T20:54:36;11.10;99.90
17632;DHT22;8934;51.194;17.150;2024-03-29T20:57:23;11.10;99.90
17632;DHT22;8934;51.194;17.150;2024-03-29T21:00:09;11.10;99.90
17632;DHT22;8934;51.194;17.150;2024-03-29T21:02:55;11.10;99.90
17632;DHT22;8934;51.194;17.150;2024-03-29T21:05:59;11.00;99.90
17632;DHT22;8934;51.194;17.150;2024-03-29T21:08:46;11.00;99.90
17632;DHT22;8934;51.194;17.150;2024-03-29T21:11:34;11.00;99.90
17632;DHT22;8934;51.194;17.150;2024-03-29T21:14:20;11.00;99.90
17632;DHT22;8934;51.194;17.150;2024-03-29T21:17:07;11.10;99.90
17632;DHT22;8934;51.194;17.150;2024-03-29T21:19:53;11.10;99.90
17632;DHT22;8934;51.194;17.150;2024-03-29T21:22:39;11.10;99.90
17632;DHT22;8934;51.194;17.150;2024-03-29T21:25:26;11.10;99.90
17632;DHT22;8934;51.194;17.150;2024-03-29T21:28:12;11.10;99.90
17632;DHT22;8934;51.194;17.150;2024-03-29T21:30:59;11.20;99.90
17632;DHT22;8934;51.194;17.150;2024-03-29T21:33:44;11.20;99.90
17632;DHT22;8934;51.194;17.150;2024-03-29T21:36:30;11.20;99.90
17632;DHT22;8934;51.194;17.150;2024-03-29T21:39:15;11.20;99.90
17632;DHT22;8934;51.194;17.150;2024-03-29T21:42:02;11.20;99.90
17632;DHT22;8934;51.194;17.150;2024-03-29T21:44:52;11.20;99.90
17632;DHT22;8934;51.194;17.150;2024-03-29T21:47:39;11.20;99.90
17632;DHT22;8934;51.194;17.150;2024-03-29T21:50:24;11.20;99.90
17632;DHT22;8934;51.194;17.150;2024-03-29T21:53:11;11.20;99.90
17632;DHT22;8934;51.194;17.150;2024-03-29T21:55:56;11.20;99.90
17632;DHT22;8934;51.194;17.150;2024-03-29T21:58:43;11.20;99.90
17632;DHT22;8934;51.194;17.150;2024-03-29T22:01:30;11.30;99.90
17632;DHT22;8934;51.194;17.150;2024-03-29T22:04:18;11.30;99.90
17632;DHT22;8934;51.194;17.150;2024-03-29T22:07:04;11.30;99.90
17632;DHT22;8934;51.194;17.150;2024-03-29T22:09:51;11.30;99.90
17632;DHT22;8934;51.194;17.150;2024-03-29T22:12:36;11.30;99.90
17632;DHT22;8934;51.194;17.150;2024-03-29T22:15:23;11.30;99.90
17632;DHT22;8934;51.194;17.150;2024-03-29T22:18:10;11.40;99.90
17632;DHT22;8934;51.194;17.150;2024-03-29T22:20:56;11.50;99.90
17632;DHT22;8934;51.194;17.150;2024-03-29T22:23:42;11.60;99.90
17632;DHT22;8934;51.194;17.150;2024-03-29T22:26:27;11.70;99.90
17632;DHT22;8934;51.194;17.150;2024-03-29T22:29:14;11.80;99.90
17632;DHT22;8934;51.194;17.150;2024-03-29T22:31:59;11.90;99.90
17632;DHT22;8934;51.194;17.150;2024-03-29T22:34:47;11.90;99.90
17632;DHT22;8934;51.194;17.150;2024-03-29T22:37:32;11.90;99.90
17632;DHT22;8934;51.194;17.150;2024-03-29T22:40:19;12.00;99.90
17632;DHT22;8934;51.194;17.150;2024-03-29T22:43:05;11.90;99.90
17632;DHT22;8934;51.194;17.150;2024-03-29T22:45:51;11.90;99.90
17632;DHT22;8934;51.194;17.150;2024-03-29T22:48:36;11.80;99.90
17632;DHT22;8934;51.194;17.150;2024-03-29T22:51:24;11.80;99.90
17632;DHT22;8934;51.194;17.150;2024-03-29T22:54:09;11.70;99.90
17632;DHT22;8934;51.194;17.150;2024-03-29T22:56:54;11.60;99.90
17632;DHT22;8934;51.194;17.150;2024-03-29T22:59:39;11.50;99.90
17632;DHT22;8934;51.194;17.150;2024-03-29T23:02:25;11.50;99.90
17632;DHT22;8934;51.194;17.150;2024-03-29T23:05:10;11.40;99.90
17632;DHT22;8934;51.194;17.150;2024-03-29T23:07:58;11.30;99.90
17632;DHT22;8934;51.194;17.150;2024-03-29T23:10:45;11.20;99.90
17632;DHT22;8934;51.194;17.150;2024-03-29T23:13:31;11.10;99.90
17632;DHT22;8934;51.194;17.150;2024-03-29T23:16:16;11.10;99.90
17632;DHT22;8934;51.194;17.150;2024-03-29T23:19:03;11.00;99.90
17632;DHT22;8934;51.194;17.150;2024-03-29T23:21:48;10.90;99.90
17632;DHT22;8934;51.194;17.150;2024-03-29T23:24:35;10.80;99.90
17632;DHT22;8934;51.194;17.150;2024-03-29T23:27:20;10.70;99.90
17632;DHT22;8934;51.194;17.150;2024-03-29T23:30:07;10.50;99.90
17632;DHT22;8934;51.194;17.150;2024-03-29T23:32:52;10.50;99.90
17632;DHT22;8934;51.194;17.150;2024-03-29T23:35:37;10.40;99.90
17632;DHT22;8934;51.194;17.150;2024-03-29T23:38:24;10.30;99.90
17632;DHT22;8934;51.194;17.150;2024-03-29T23:41:12;10.30;99.90
17632;DHT22;8934;51.194;17.150;2024-03-29T23:43:57;10.20;99.90